Weather History for Fosston, MN

Change the Weather History Date:

Saturday, August 3, 2013

  Actual Average Record
Temperature  
Mean Temperature 58 °F -  
Max Temperature 73 °F 79 °F 96 °F (1989)
Min Temperature 44 °F 53 °F 35 °F (1972)
Degree Days  
Heating Degree Days 6    
Growing Degree Days 8 (Base 50)    
Moisture  
Dew Point 44 °F    
Average Humidity 63    
Maximum Humidity 94    
Minimum Humidity 33    
Precipitation  
Precipitation 0.00 in - - ()
Sea Level Pressure  
Sea Level Pressure 30.20 in    
Wind  
Wind Speed 2 mph (North)    
Max Wind Speed 14 mph    
Max Gust Speed 21 mph    
Visibility 10 miles    
Events      
Averages and records for this station are not official NWS values.
T = Trace of Precipitation, MM = Missing Value Source: NWS Daily Summary

Daily Weather History Graph

Daily Weather History Graph

Search for Another Location

Airport:

Trip Planner

Search our weather history database for the weather conditions in past years. The results will help you decide how hot, cold, wet, or windy it might be!

Date:

Astronomy

Aug. 03, 2013 Rise Set
Actual Time 6:03 AM CDT 8:54 PM CDT
Civil Twilight 5:27 AM CDT 9:29 PM CDT
Nautical Twilight 4:42 AM CDT 10:14 PM CDT
Astronomical Twilight 3:47 AM CDT 11:08 PM CDT
Moon 3:10 AM CDT (8/3) 6:39 PM CDT (8/3)
Length of Visible Light 16h 01m
Length of Day
14h 50m
Waning Crescent, 9% of the Moon is Illuminated
Aug 3
Waning Crescent
Aug 6
New
Aug 14
First Quarter
Aug 20
Full
Aug 28
Last Quarter

Hourly Weather History & Observations

Time (CDT) Temp. Dew Point Humidity Pressure Visibility Wind Dir Wind Speed Gust Speed Precip Events Conditions
12:15 AM 51.8 °F 46.4 °F 82% 30.11 in 10.0 mi Calm Calm - N/A   Mostly Cloudy
12:35 AM 50.0 °F 46.4 °F 87% 30.11 in 10.0 mi Calm Calm - N/A   Scattered Clouds
12:55 AM 50.0 °F 46.4 °F 87% 30.12 in 10.0 mi Calm Calm - N/A   Clear
1:15 AM 50.0 °F 46.4 °F 87% 30.12 in 10.0 mi Calm Calm - N/A   Clear
1:35 AM 50.0 °F 46.4 °F 87% 30.13 in 10.0 mi Calm Calm - N/A   Clear
1:55 AM 48.2 °F 44.6 °F 87% 30.13 in 10.0 mi Calm Calm - N/A   Clear
2:15 AM 46.4 °F 42.8 °F 87% 30.13 in 10.0 mi Calm Calm - N/A   Clear
2:34 AM 46.4 °F 42.8 °F 87% 30.14 in 10.0 mi Calm Calm - N/A   Clear
2:55 AM 46.4 °F 42.8 °F 87% 30.14 in 10.0 mi Calm Calm - N/A   Clear
3:15 AM 46.4 °F 41.0 °F 81% 30.14 in 10.0 mi Calm Calm - N/A   Clear
3:35 AM 46.4 °F 41.0 °F 81% 30.14 in 10.0 mi Calm Calm - N/A   Clear
3:55 AM 46.4 °F 41.0 °F 81% 30.14 in 10.0 mi Calm Calm - N/A   Clear
4:15 AM 46.4 °F 42.8 °F 87% 30.14 in 10.0 mi Calm Calm - N/A   Clear
4:35 AM 46.4 °F 42.8 °F 87% 30.15 in 10.0 mi Calm Calm - N/A   Clear
4:55 AM 44.6 °F 39.2 °F 81% 30.15 in 10.0 mi Calm Calm - N/A   Clear
5:15 AM 44.6 °F 39.2 °F 81% 30.16 in 10.0 mi Calm Calm - N/A   Clear
5:35 AM 46.4 °F 44.6 °F 93% 30.16 in 10.0 mi Calm Calm - N/A   Clear
5:55 AM 44.6 °F 42.8 °F 93% 30.16 in 10.0 mi Calm Calm - N/A   Clear
6:15 AM 44.6 °F 42.8 °F 93% 30.17 in 10.0 mi Calm Calm - N/A   Clear
6:35 AM 46.4 °F 42.8 °F 87% 30.17 in 10.0 mi Calm Calm - N/A   Clear
6:52 AM 46.4 °F 42.8 °F 87% 30.17 in 10.0 mi Calm Calm - N/A   Clear
7:14 AM 48.2 °F 44.6 °F 87% 30.18 in 10.0 mi Calm Calm - N/A   Clear
7:35 AM 48.2 °F 46.4 °F 93% 30.18 in 10.0 mi Calm Calm - N/A   Clear
7:55 AM 50.0 °F 48.2 °F 94% 30.19 in 10.0 mi Calm Calm - N/A   Clear
8:15 AM 53.6 °F 50.0 °F 88% 30.20 in 10.0 mi Calm Calm - N/A   Clear
8:35 AM 53.6 °F 51.8 °F 94% 30.20 in 10.0 mi Calm Calm - N/A   Clear
8:55 AM 53.6 °F 50.0 °F 88% 30.21 in 10.0 mi Calm Calm - N/A   Clear
9:15 AM 55.4 °F 51.8 °F 88% 30.22 in 10.0 mi Calm Calm - N/A   Clear
9:35 AM 60.8 °F 51.8 °F 72% 30.22 in 10.0 mi Calm Calm - N/A   Clear
9:55 AM 62.6 °F 51.8 °F 68% 30.23 in 10.0 mi Calm Calm - N/A   Clear
10:15 AM 64.4 °F 53.6 °F 68% 30.23 in 10.0 mi Calm Calm - N/A   Clear
10:35 AM 64.4 °F 50.0 °F 59% 30.23 in 10.0 mi North 5.8 mph - N/A   Clear
10:55 AM 66.2 °F 48.2 °F 52% 30.23 in 10.0 mi NNW 5.8 mph - N/A   Clear
11:15 AM 68.0 °F 48.2 °F 49% 30.23 in 10.0 mi North 10.4 mph - N/A   Scattered Clouds
11:35 AM 66.2 °F 48.2 °F 52% 30.23 in 10.0 mi North 9.2 mph - N/A   Mostly Cloudy
11:55 AM 66.2 °F 48.2 °F 52% 30.23 in 10.0 mi North 8.1 mph - N/A   Mostly Cloudy
12:15 PM 68.0 °F 46.4 °F 46% 30.23 in 10.0 mi NNW 6.9 mph - N/A   Mostly Cloudy
12:35 PM 69.8 °F 46.4 °F 43% 30.23 in 10.0 mi North 9.2 mph - N/A   Mostly Cloudy
12:55 PM 68.0 °F 44.6 °F 43% 30.23 in 10.0 mi North 12.7 mph - N/A   Mostly Cloudy
1:15 PM 68.0 °F 42.8 °F 40% 30.23 in 10.0 mi North 9.2 mph 16.1 mph N/A   Mostly Cloudy
1:35 PM 69.8 °F 42.8 °F 38% 30.23 in 10.0 mi North 13.8 mph 20.7 mph N/A   Mostly Cloudy
1:55 PM 71.6 °F 44.6 °F 38% 30.23 in 10.0 mi North 11.5 mph 17.3 mph N/A   Scattered Clouds
2:15 PM 71.6 °F 44.6 °F 38% 30.23 in 10.0 mi NNW 12.7 mph 17.3 mph N/A   Scattered Clouds
2:35 PM 69.8 °F 44.6 °F 40% 30.24 in 10.0 mi NNW 8.1 mph - N/A   Mostly Cloudy
2:55 PM 71.6 °F 42.8 °F 35% 30.24 in 10.0 mi North 11.5 mph 16.1 mph N/A   Mostly Cloudy
3:15 PM 71.6 °F 44.6 °F 38% 30.24 in 10.0 mi NNW 12.7 mph 17.3 mph N/A   Mostly Cloudy
3:35 PM 73.4 °F 42.8 °F 33% 30.23 in 10.0 mi North 10.4 mph - N/A   Mostly Cloudy
3:55 PM 71.6 °F 42.8 °F 35% 30.23 in 10.0 mi North 8.1 mph 17.3 mph N/A   Scattered Clouds
4:15 PM 73.4 °F 42.8 °F 33% 30.23 in 10.0 mi North 9.2 mph - N/A   Mostly Cloudy
4:35 PM 73.4 °F 42.8 °F 33% 30.23 in 10.0 mi North 4.6 mph - N/A   Scattered Clouds
4:55 PM 71.6 °F 44.6 °F 38% 30.23 in 10.0 mi North 12.7 mph 17.3 mph N/A   Clear
5:15 PM 69.8 °F 41.0 °F 35% 30.23 in 10.0 mi North 8.1 mph - N/A   Scattered Clouds
5:35 PM 73.4 °F 42.8 °F 33% 30.23 in 10.0 mi North 12.7 mph 17.3 mph N/A   Scattered Clouds
5:55 PM 71.6 °F 42.8 °F 35% 30.23 in 10.0 mi NNE 9.2 mph - N/A   Scattered Clouds
6:15 PM 71.6 °F 42.8 °F 35% 30.23 in 10.0 mi North 9.2 mph - N/A   Clear
6:35 PM 71.6 °F 42.8 °F 35% 30.23 in 10.0 mi North 9.2 mph - N/A   Clear
6:55 PM 71.6 °F 42.8 °F 35% 30.23 in 10.0 mi NNE 8.1 mph - N/A   Clear
7:15 PM 69.8 °F 44.6 °F 40% 30.23 in 10.0 mi North 4.6 mph - N/A   Clear
7:35 PM 69.8 °F 42.8 °F 38% 30.23 in 10.0 mi NNE 5.8 mph - N/A   Clear
7:55 PM 66.2 °F 42.8 °F 43% 30.22 in 10.0 mi NNE 4.6 mph - N/A   Clear
8:15 PM 64.4 °F 44.6 °F 49% 30.22 in 10.0 mi Calm Calm - N/A   Clear
8:34 PM 62.6 °F 42.8 °F 48% 30.22 in 10.0 mi Calm Calm - N/A   Clear
8:55 PM 57.2 °F 39.2 °F 51% 30.23 in 10.0 mi Calm Calm - N/A   Clear
9:15 PM 55.4 °F 37.4 °F 51% 30.23 in 10.0 mi Calm Calm - N/A   Clear
9:35 PM 53.6 °F 39.2 °F 58% 30.24 in 10.0 mi Calm Calm - N/A   Clear
9:55 PM 51.8 °F 37.4 °F 58% 30.24 in 7.0 mi Calm Calm - N/A   Clear
10:15 PM 50.0 °F 37.4 °F 62% 30.24 in 10.0 mi Calm Calm - N/A   Clear
10:36 PM 48.2 °F 41.0 °F 76% 30.25 in 10.0 mi Calm Calm - N/A   Clear
10:55 PM 46.4 °F 37.4 °F 71% 30.25 in 10.0 mi Calm Calm - N/A   Clear
11:15 PM 46.4 °F 35.6 °F 66% 30.25 in 10.0 mi Calm Calm - N/A   Clear
11:35 PM 44.6 °F 35.6 °F 71% 30.26 in 10.0 mi Calm Calm - N/A   Clear
11:55 PM 46.4 °F 32.0 °F 57% 30.26 in 10.0 mi Calm Calm - N/A   Clear